createdAt,value
2023-03-17T00:00:21.727Z,80.78
2023-03-17T00:02:24.556Z,80.87
2023-03-17T00:04:27.954Z,81.10
2023-03-17T00:06:32.384Z,80.72
2023-03-17T00:08:36.167Z,80.68
2023-03-17T00:10:39.238Z,80.68
2023-03-17T00:12:41.763Z,81.05
2023-03-17T00:14:46.457Z,80.68
2023-03-17T00:16:52.971Z,80.69
2023-03-17T00:18:57.717Z,80.63
2023-03-17T00:21:00.190Z,80.33
2023-03-17T00:23:04.819Z,80.62
2023-03-17T00:25:24.030Z,80.64
2023-03-17T00:27:26.499Z,80.90
2023-03-17T00:29:28.990Z,80.61
2023-03-17T00:31:32.867Z,80.76
2023-03-17T00:33:37.269Z,80.50
2023-03-17T00:35:41.061Z,80.61
2023-03-17T00:37:44.226Z,80.86
2023-03-17T00:39:46.694Z,81.08
2023-03-17T00:41:49.234Z,80.57
2023-03-17T00:43:51.743Z,81.09
2023-03-17T00:45:55.181Z,81.35
2023-03-17T00:47:57.779Z,80.98
2023-03-17T00:50:00.281Z,80.88
2023-03-17T00:52:03.101Z,80.88
2023-03-17T00:54:05.765Z,81.01
2023-03-17T00:56:19.966Z,80.73
2023-03-17T00:58:28.987Z,80.65
2023-03-17T01:00:31.818Z,80.77
2023-03-17T01:02:34.923Z,80.59
2023-03-17T01:04:37.753Z,81.00
2023-03-17T01:06:40.477Z,81.18
2023-03-17T01:08:44.891Z,80.99
2023-03-17T01:10:48.057Z,80.94
2023-03-17T01:12:51.684Z,80.95
2023-03-17T01:14:54.763Z,80.83
2023-03-17T01:16:57.283Z,80.07
2023-03-17T01:19:00.261Z,80.34
2023-03-17T01:21:02.993Z,80.17
2023-03-17T01:23:05.575Z,80.30
2023-03-17T01:25:08.756Z,79.85
2023-03-17T01:27:11.783Z,80.06
2023-03-17T01:29:15.057Z,79.83
2023-03-17T01:31:18.607Z,79.58
2023-03-17T01:33:21.281Z,79.32
2023-03-17T01:35:26.552Z,79.55
2023-03-17T01:37:29.075Z,79.32
2023-03-17T01:39:31.585Z,78.78
2023-03-17T01:41:35.425Z,79.06
2023-03-17T01:43:38.585Z,78.52
2023-03-17T01:46:15.010Z,78.83
2023-03-17T01:48:18.857Z,78.44
2023-03-17T01:50:21.442Z,78.18
2023-03-17T01:52:23.954Z,78.00
2023-03-17T01:54:46.649Z,78.23
2023-03-17T01:56:52.432Z,77.98
2023-03-17T01:58:56.909Z,78.28
2023-03-17T02:00:59.691Z,78.04
2023-03-17T02:03:03.087Z,77.89
2023-03-17T02:05:08.534Z,77.70
2023-03-17T02:07:12.676Z,78.57
2023-03-17T02:09:15.914Z,78.70
2023-03-17T02:11:19.376Z,78.83
2023-03-17T02:13:22.239Z,78.19
2023-03-17T02:15:35.741Z,78.33
2023-03-17T02:17:38.609Z,78.80
2023-03-17T02:19:42.597Z,78.39
2023-03-17T02:21:50.084Z,78.34
2023-03-17T02:23:52.857Z,78.49
2023-03-17T02:25:55.646Z,78.41
2023-03-17T02:28:02.374Z,78.17
2023-03-17T02:30:07.706Z,78.29
2023-03-17T02:32:10.320Z,78.69
2023-03-17T02:34:13.057Z,78.11
2023-03-17T02:36:16.421Z,78.66
2023-03-17T02:38:18.984Z,78.54
2023-03-17T02:40:22.203Z,78.42
2023-03-17T02:42:24.857Z,78.89
2023-03-17T02:44:27.895Z,78.54
2023-03-17T02:46:30.454Z,78.63
2023-03-17T02:48:36.673Z,78.87
2023-03-17T02:50:39.230Z,78.48
2023-03-17T02:52:42.065Z,78.81
2023-03-17T02:54:44.560Z,79.19
2023-03-17T02:56:47.092Z,78.83
2023-03-17T02:58:49.617Z,79.03
2023-03-17T03:00:52.113Z,78.57
2023-03-17T03:02:54.926Z,79.04
2023-03-17T03:04:57.548Z,78.46
2023-03-17T03:07:00.510Z,78.63
2023-03-17T03:09:03.965Z,78.98
2023-03-17T03:11:06.885Z,78.56
2023-03-17T03:13:09.444Z,78.73
2023-03-17T03:15:12.138Z,78.69
2023-03-17T03:17:15.385Z,79.02
2023-03-17T03:19:18.648Z,78.98
2023-03-17T03:21:22.237Z,79.29
2023-03-17T03:23:24.799Z,79.31
2023-03-17T03:25:27.363Z,79.21
2023-03-17T03:27:29.870Z,79.32
2023-03-17T03:29:32.421Z,79.27
2023-03-17T03:31:35.277Z,79.24
2023-03-17T03:33:37.731Z,79.09
2023-03-17T03:35:40.983Z,78.74
2023-03-17T03:37:43.654Z,78.61
2023-03-17T03:39:46.311Z,78.77
2023-03-17T03:41:48.792Z,78.90
2023-03-17T03:43:52.334Z,78.15
2023-03-17T03:45:54.866Z,78.09
2023-03-17T03:47:57.480Z,77.67
2023-03-17T03:50:00.234Z,78.11
2023-03-17T03:52:02.722Z,77.24
2023-03-17T03:54:05.319Z,77.29
2023-03-17T03:56:08.281Z,77.03
2023-03-17T03:58:11.480Z,76.73
2023-03-17T04:00:14.490Z,77.16
2023-03-17T04:02:17.335Z,76.86
2023-03-17T04:04:19.934Z,76.31
2023-03-17T04:06:22.467Z,75.86
2023-03-17T04:08:25.787Z,75.90
2023-03-17T04:10:28.475Z,75.95
2023-03-17T04:12:31.514Z,76.38
2023-03-17T04:14:34.245Z,75.65
2023-03-17T04:16:37.286Z,75.67
2023-03-17T04:18:39.934Z,75.63
2023-03-17T04:20:42.767Z,75.69
2023-03-17T04:22:45.695Z,75.69
2023-03-17T04:24:48.235Z,75.47
2023-03-17T04:26:50.733Z,75.45
2023-03-17T04:28:53.275Z,75.60
2023-03-17T04:30:56.455Z,75.38
2023-03-17T04:32:59.066Z,75.97
2023-03-17T04:35:01.782Z,75.58
2023-03-17T04:37:05.525Z,75.21
2023-03-17T04:39:08.263Z,75.90
2023-03-17T04:41:11.722Z,75.55
2023-03-17T04:43:14.164Z,75.32
2023-03-17T04:45:17.347Z,75.24
2023-03-17T04:47:19.901Z,75.45
2023-03-17T04:49:22.776Z,75.69
2023-03-17T04:51:25.855Z,75.21
2023-03-17T04:53:28.798Z,75.17
2023-03-17T04:55:31.654Z,75.04
2023-03-17T04:57:34.936Z,75.04
2023-03-17T04:59:37.353Z,75.48
2023-03-17T05:01:39.874Z,74.87
2023-03-17T05:03:42.410Z,74.60
2023-03-17T05:05:44.904Z,74.66
2023-03-17T05:07:47.772Z,74.48
2023-03-17T05:09:50.396Z,74.14
2023-03-17T05:11:52.984Z,74.35
2023-03-17T05:13:57.131Z,74.04
2023-03-17T05:16:01.003Z,73.95
2023-03-17T05:18:05.020Z,73.65
2023-03-17T05:20:08.666Z,73.67
2023-03-17T05:22:11.743Z,73.91
2023-03-17T05:24:14.288Z,73.36
2023-03-17T05:26:17.242Z,73.53
2023-03-17T05:28:21.101Z,73.33
2023-03-17T05:30:24.049Z,72.85
2023-03-17T05:32:26.581Z,73.07
2023-03-17T05:34:29.068Z,72.66
2023-03-17T05:36:32.378Z,72.96
2023-03-17T05:38:34.878Z,72.30
2023-03-17T05:40:37.522Z,72.23
2023-03-17T05:42:40.060Z,72.18
2023-03-17T05:44:42.530Z,72.11
2023-03-17T05:46:45.072Z,71.58
2023-03-17T05:48:47.809Z,71.09
2023-03-17T05:50:50.461Z,70.91
2023-03-17T05:52:53.681Z,70.60
2023-03-17T05:54:56.160Z,70.34
2023-03-17T05:56:58.777Z,70.25
2023-03-17T05:59:02.475Z,69.97
2023-03-17T06:01:06.096Z,69.46
2023-03-17T06:03:08.946Z,69.26
2023-03-17T06:05:11.689Z,68.94
2023-03-17T06:07:14.503Z,69.10
2023-03-17T06:09:17.038Z,69.00
2023-03-17T06:11:21.646Z,68.92
2023-03-17T06:13:24.205Z,68.55
2023-03-17T06:15:27.014Z,68.34
2023-03-17T06:17:29.714Z,68.81
2023-03-17T06:19:32.489Z,68.25
2023-03-17T06:21:35.402Z,68.12
2023-03-17T06:23:37.911Z,67.65
2023-03-17T06:25:40.528Z,68.04
2023-03-17T06:27:43.360Z,67.74
2023-03-17T06:29:47.743Z,67.54
2023-03-17T06:31:51.501Z,67.50
2023-03-17T06:33:53.961Z,67.18
2023-03-17T06:35:58.751Z,66.71
2023-03-17T06:38:01.427Z,66.18
2023-03-17T06:40:05.969Z,66.21
2023-03-17T06:42:08.702Z,65.18
2023-03-17T06:44:11.229Z,65.01
2023-03-17T06:46:13.947Z,64.89
2023-03-17T06:48:16.567Z,64.56
2023-03-17T06:50:19.242Z,64.84
2023-03-17T06:52:21.859Z,65.17
2023-03-17T06:54:25.554Z,65.17
2023-03-17T06:56:30.519Z,65.32
2023-03-17T06:58:34.639Z,65.43
2023-03-17T07:00:38.500Z,65.88
2023-03-17T07:02:41.465Z,65.77
2023-03-17T07:04:44.130Z,65.17
2023-03-17T07:06:46.714Z,65.09
2023-03-17T07:08:50.965Z,64.57
2023-03-17T07:10:57.417Z,64.30
2023-03-17T07:13:00.118Z,64.38
2023-03-17T07:15:03.619Z,64.23
2023-03-17T07:17:06.939Z,63.89
2023-03-17T07:19:09.979Z,63.80
2023-03-17T07:21:12.791Z,63.57
2023-03-17T07:23:19.232Z,62.92
2023-03-17T07:25:22.594Z,62.88
2023-03-17T07:27:26.703Z,62.94
2023-03-17T07:29:29.387Z,63.17
2023-03-17T07:31:32.122Z,62.88
2023-03-17T07:33:34.844Z,61.86
2023-03-17T07:35:37.573Z,61.40
2023-03-17T07:37:40.150Z,61.00
2023-03-17T07:39:42.773Z,60.78
2023-03-17T07:41:47.077Z,60.00
2023-03-17T07:43:49.817Z,60.02
2023-03-17T07:45:53.006Z,60.07
2023-03-17T07:47:55.807Z,60.28
2023-03-17T07:49:58.320Z,60.17
2023-03-17T07:52:01.433Z,60.35
2023-03-17T07:54:04.824Z,60.89
2023-03-17T07:56:08.133Z,60.28
2023-03-17T07:58:10.740Z,60.17
2023-03-17T08:00:13.952Z,60.24
2023-03-17T08:02:18.370Z,60.78
2023-03-17T08:04:21.162Z,60.44
2023-03-17T08:06:25.513Z,60.25
2023-03-17T08:08:28.446Z,60.79
2023-03-17T08:10:31.330Z,60.71
2023-03-17T08:12:35.440Z,60.61
2023-03-17T08:14:38.022Z,60.10
2023-03-17T08:16:41.455Z,59.98
2023-03-17T08:18:44.165Z,59.44
2023-03-17T08:20:46.618Z,59.46
2023-03-17T08:22:49.146Z,59.10
2023-03-17T08:24:52.102Z,58.75
2023-03-17T08:26:54.643Z,58.42
2023-03-17T08:28:57.237Z,57.93
2023-03-17T08:31:11.102Z,57.39
2023-03-17T08:33:15.452Z,57.37
2023-03-17T08:35:18.679Z,56.95
2023-03-17T08:37:22.381Z,57.39
2023-03-17T08:39:25.490Z,57.12
2023-03-17T08:41:28.645Z,57.22
2023-03-17T08:43:31.415Z,57.34
2023-03-17T08:45:34.471Z,57.79
2023-03-17T08:47:38.420Z,57.45
2023-03-17T08:49:41.266Z,56.67
2023-03-17T08:51:45.015Z,56.03
2023-03-17T08:53:47.546Z,55.36
2023-03-17T08:55:50.127Z,54.80
2023-03-17T08:57:53.066Z,54.27
2023-03-17T08:59:56.024Z,54.06
2023-03-17T09:01:58.578Z,53.67
2023-03-17T09:04:01.915Z,53.79
2023-03-17T09:06:06.956Z,53.13
2023-03-17T09:08:10.668Z,53.27
2023-03-17T09:10:14.995Z,53.16
2023-03-17T09:12:17.824Z,53.18
2023-03-17T09:14:20.774Z,52.95
2023-03-17T09:16:24.197Z,52.47
2023-03-17T09:18:27.370Z,52.47
2023-03-17T09:20:30.402Z,52.21
2023-03-17T09:22:33.019Z,51.69
2023-03-17T09:24:35.794Z,51.97
2023-03-17T09:26:38.344Z,51.65
2023-03-17T09:28:40.956Z,52.27
2023-03-17T09:30:43.598Z,52.04
2023-03-17T09:32:46.210Z,51.73
2023-03-17T09:34:51.432Z,51.50
2023-03-17T09:36:54.820Z,51.43
2023-03-17T09:38:57.409Z,51.58
2023-03-17T09:41:20.282Z,51.45
2023-03-17T09:43:31.932Z,51.51
2023-03-17T09:45:40.596Z,52.04
2023-03-17T09:48:12.109Z,52.33
2023-03-17T09:50:22.852Z,52.09
2023-03-17T09:52:29.314Z,51.50
2023-03-17T09:54:36.475Z,52.08
2023-03-17T09:56:44.374Z,51.70
2023-03-17T09:59:04.892Z,51.88
2023-03-17T10:01:10.470Z,51.57
2023-03-17T10:03:14.005Z,51.86
2023-03-17T10:05:27.651Z,51.74
2023-03-17T10:07:42.935Z,51.63
2023-03-17T10:10:01.465Z,51.92
2023-03-17T10:12:27.751Z,51.33
2023-03-17T10:14:56.596Z,51.08
2023-03-17T10:17:15.613Z,50.68
2023-03-17T10:19:32.790Z,50.40
2023-03-17T10:21:42.421Z,51.79
2023-03-17T10:23:46.879Z,52.29
2023-03-17T10:25:49.593Z,52.65
2023-03-17T10:28:21.012Z,52.47
2023-03-17T10:30:24.359Z,52.28
2023-03-17T10:32:35.691Z,52.50
2023-03-17T10:34:43.718Z,52.36
2023-03-17T10:36:56.551Z,52.54
2023-03-17T10:39:00.187Z,51.87
2023-03-17T10:41:14.803Z,52.68
2023-03-17T10:43:20.822Z,52.72
2023-03-17T10:45:32.642Z,53.02
2023-03-17T10:47:40.050Z,53.22
2023-03-17T10:49:44.533Z,53.25
2023-03-17T10:51:47.279Z,53.48
2023-03-17T10:53:53.350Z,53.62
2023-03-17T10:56:08.008Z,53.47
2023-03-17T10:58:10.660Z,53.77
2023-03-17T11:00:23.437Z,53.00
2023-03-17T11:02:43.386Z,52.72
2023-03-17T11:04:47.197Z,53.50
2023-03-17T11:06:51.592Z,53.66
2023-03-17T11:08:55.769Z,53.51
2023-03-17T11:10:58.514Z,53.76
2023-03-17T11:13:02.291Z,53.76
2023-03-17T11:15:07.719Z,53.19
2023-03-17T11:17:19.856Z,52.90
2023-03-17T11:19:43.548Z,52.21
2023-03-17T11:21:54.860Z,52.54
2023-03-17T11:24:16.129Z,52.52
2023-03-17T11:26:42.649Z,52.68
2023-03-17T11:28:54.712Z,52.36
2023-03-17T11:31:00.302Z,52.17
2023-03-17T11:33:02.734Z,52.39
2023-03-17T11:35:23.381Z,52.63
2023-03-17T11:37:37.978Z,53.35
2023-03-17T11:40:07.898Z,52.75
2023-03-17T11:42:36.578Z,52.91
2023-03-17T11:45:10.026Z,53.03
2023-03-17T11:47:27.061Z,53.40
2023-03-17T11:49:40.157Z,54.06
2023-03-17T11:51:54.671Z,54.78
2023-03-17T11:54:06.119Z,56.03
2023-03-17T11:56:25.662Z,56.31
2023-03-17T11:58:35.732Z,57.01
2023-03-17T12:01:00.570Z,58.08
2023-03-17T12:03:27.745Z,59.65
2023-03-17T12:05:31.732Z,60.27
2023-03-17T12:07:42.183Z,61.06
2023-03-17T12:10:06.131Z,61.24
2023-03-17T12:12:11.293Z,61.74
2023-03-17T12:14:19.530Z,68.71
2023-03-17T12:16:34.130Z,71.92
2023-03-17T12:18:46.662Z,69.35
2023-03-17T12:20:58.401Z,70.98
2023-03-17T12:23:30.193Z,73.55
2023-03-17T12:26:17.840Z,76.32
2023-03-17T12:28:27.253Z,77.82
2023-03-17T12:31:01.376Z,79.93
2023-03-17T12:33:27.888Z,83.47
2023-03-17T12:35:38.826Z,83.19
2023-03-17T12:37:42.108Z,84.97
2023-03-17T12:40:04.675Z,84.35
2023-03-17T12:42:22.118Z,85.51
2023-03-17T12:44:39.753Z,87.21
2023-03-17T12:46:57.576Z,87.26
2023-03-17T12:49:17.594Z,90.98
2023-03-17T12:51:32.354Z,92.36
2023-03-17T12:53:40.075Z,93.38
2023-03-17T12:55:47.441Z,94.09
2023-03-17T12:58:26.515Z,95.54
2023-03-17T13:00:34.156Z,96.80
2023-03-17T13:02:38.802Z,97.24
2023-03-17T13:04:50.105Z,97.32
2023-03-17T13:07:05.528Z,98.38
2023-03-17T13:09:31.621Z,97.32
2023-03-17T13:11:36.914Z,98.63
2023-03-17T13:14:26.633Z,99.78
2023-03-17T13:16:39.562Z,100.00
2023-03-17T13:18:41.993Z,100.00
2023-03-17T13:21:12.766Z,100.00
2023-03-17T13:23:17.633Z,100.00
2023-03-17T13:25:33.862Z,100.00
2023-03-17T13:27:39.281Z,100.00
2023-03-17T13:29:45.699Z,100.00
2023-03-17T13:31:48.243Z,100.00
2023-03-17T13:33:55.008Z,100.00
2023-03-17T13:36:06.554Z,100.00
2023-03-17T13:38:34.841Z,100.00
2023-03-17T13:40:52.650Z,100.00
2023-03-17T13:43:07.521Z,100.00
2023-03-17T13:45:44.048Z,100.00
2023-03-17T13:47:47.848Z,100.00
2023-03-17T13:49:53.271Z,100.00
2023-03-17T13:52:02.021Z,100.00
2023-03-17T13:54:30.922Z,100.00
2023-03-17T13:56:42.241Z,100.00
2023-03-17T13:59:02.947Z,100.00
2023-03-17T14:01:10.461Z,100.00
2023-03-17T14:03:20.122Z,100.00
2023-03-17T14:05:27.293Z,100.00
2023-03-17T14:07:39.639Z,100.00
2023-03-17T14:09:43.663Z,100.00
2023-03-17T14:11:48.363Z,100.00
2023-03-17T14:14:15.210Z,100.00
2023-03-17T14:16:32.184Z,100.00
2023-03-17T14:18:38.059Z,100.00
2023-03-17T14:20:40.913Z,100.00
2023-03-17T14:22:52.707Z,100.00
2023-03-17T14:24:59.619Z,100.00
2023-03-17T14:27:08.262Z,100.00
2023-03-17T14:29:16.272Z,100.00
2023-03-17T14:31:24.478Z,100.00
2023-03-17T14:33:29.795Z,100.00
2023-03-17T14:35:43.630Z,100.00
2023-03-17T14:37:46.167Z,100.00
2023-03-17T14:39:52.844Z,100.00
2023-03-17T14:42:03.937Z,100.00
2023-03-17T14:44:09.519Z,100.00
2023-03-17T14:46:22.365Z,100.00
2023-03-17T14:48:32.672Z,100.00
2023-03-17T14:50:35.428Z,100.00
2023-03-17T14:52:41.250Z,100.00
2023-03-17T14:54:44.214Z,100.00
2023-03-17T14:56:52.124Z,100.00
2023-03-17T14:58:54.583Z,100.00
2023-03-17T15:01:05.235Z,100.00
2023-03-17T15:03:20.390Z,100.00
2023-03-17T15:05:42.871Z,100.00
2023-03-17T15:07:45.452Z,100.00
2023-03-17T15:10:04.036Z,100.00
2023-03-17T15:12:22.277Z,100.00
2023-03-17T15:14:38.892Z,100.00
2023-03-17T15:16:53.224Z,100.00
2023-03-17T15:19:23.826Z,100.00
2023-03-17T15:21:40.976Z,100.00
2023-03-17T15:23:43.503Z,100.00
2023-03-17T15:25:50.622Z,100.00
2023-03-17T15:27:53.547Z,100.00
2023-03-17T15:29:56.649Z,100.00
2023-03-17T15:32:21.732Z,100.00
2023-03-17T15:34:24.246Z,100.00
2023-03-17T15:36:32.685Z,100.00
2023-03-17T15:38:39.048Z,100.00
2023-03-17T15:40:41.731Z,100.00
2023-03-17T15:42:45.538Z,100.00
2023-03-17T15:44:48.320Z,100.00
2023-03-17T15:46:51.257Z,100.00
2023-03-17T15:48:53.838Z,100.00
2023-03-17T15:50:58.326Z,100.00
2023-03-17T15:53:00.878Z,100.00
2023-03-17T15:55:14.247Z,100.00
2023-03-17T15:57:17.368Z,100.00
2023-03-17T15:59:19.836Z,100.00
2023-03-17T16:01:22.451Z,100.00
2023-03-17T16:03:30.594Z,100.00
2023-03-17T16:05:35.200Z,100.00
2023-03-17T16:07:37.863Z,100.00
2023-03-17T16:09:40.325Z,100.00
2023-03-17T16:11:43.444Z,100.00
2023-03-17T16:13:47.324Z,100.00
2023-03-17T16:15:59.160Z,100.00
2023-03-17T16:18:04.350Z,100.00
2023-03-17T16:20:07.728Z,100.00
2023-03-17T16:22:41.988Z,100.00
2023-03-17T16:24:44.821Z,100.00
2023-03-17T16:26:47.657Z,100.00
2023-03-17T16:28:50.304Z,100.00
2023-03-17T16:30:54.708Z,100.00
2023-03-17T16:33:02.941Z,100.00
2023-03-17T16:35:18.105Z,100.00
2023-03-17T16:37:20.821Z,100.00
2023-03-17T16:39:23.833Z,100.00
2023-03-17T16:41:27.742Z,100.00
2023-03-17T16:43:33.575Z,100.00
2023-03-17T16:45:36.201Z,100.00
2023-03-17T16:47:38.729Z,100.00
2023-03-17T16:49:41.227Z,100.00
2023-03-17T16:51:43.970Z,100.00
2023-03-17T16:53:47.183Z,100.00
2023-03-17T16:55:52.225Z,100.00
2023-03-17T16:57:57.743Z,100.00
2023-03-17T17:00:00.371Z,100.00
2023-03-17T17:02:03.031Z,100.00
2023-03-17T17:04:09.995Z,100.00
2023-03-17T17:06:14.543Z,100.00
2023-03-17T17:08:17.080Z,100.00
2023-03-17T17:10:22.196Z,100.00
2023-03-17T17:12:24.754Z,100.00
2023-03-17T17:14:27.234Z,100.00
2023-03-17T17:16:33.130Z,100.00
2023-03-17T17:18:38.032Z,100.00
2023-03-17T17:20:41.980Z,100.00
2023-03-17T17:22:44.724Z,100.00
2023-03-17T17:24:47.185Z,100.00
2023-03-17T17:26:49.904Z,100.00
2023-03-17T17:28:52.620Z,100.00
2023-03-17T17:30:55.281Z,100.00
2023-03-17T17:32:59.752Z,100.00
2023-03-17T17:35:02.598Z,100.00
2023-03-17T17:37:05.921Z,100.00
2023-03-17T17:39:11.268Z,100.00
2023-03-17T17:41:14.342Z,100.00
2023-03-17T17:43:18.325Z,100.00
2023-03-17T17:45:21.120Z,100.00
2023-03-17T17:47:23.767Z,100.00
2023-03-17T17:49:26.345Z,100.00
2023-03-17T17:51:28.916Z,100.00
2023-03-17T17:53:31.747Z,100.00
2023-03-17T17:55:34.819Z,100.00
2023-03-17T17:57:37.371Z,100.00
2023-03-17T17:59:40.425Z,100.00
2023-03-17T18:01:43.016Z,100.00
2023-03-17T18:03:46.191Z,100.00
2023-03-17T18:05:48.658Z,100.00
2023-03-17T18:07:51.447Z,100.00
2023-03-17T18:09:53.901Z,100.00
2023-03-17T18:11:56.552Z,100.00
2023-03-17T18:13:59.215Z,100.00
2023-03-17T18:16:02.031Z,100.00
2023-03-17T18:18:05.682Z,100.00
2023-03-17T18:20:10.708Z,100.00
2023-03-17T18:22:13.194Z,100.00
2023-03-17T18:24:16.512Z,100.00
2023-03-17T18:26:20.327Z,100.00
2023-03-17T18:28:23.071Z,100.00
2023-03-17T18:30:28.527Z,100.00
2023-03-17T18:32:31.680Z,100.00
2023-03-17T18:34:43.539Z,100.00
2023-03-17T18:36:48.065Z,100.00
2023-03-17T18:38:51.671Z,100.00
2023-03-17T18:40:54.193Z,100.00
2023-03-17T18:42:57.043Z,100.00
2023-03-17T18:44:59.641Z,100.00
2023-03-17T18:47:02.906Z,100.00
2023-03-17T18:49:07.111Z,100.00
2023-03-17T18:51:09.906Z,100.00
2023-03-17T18:53:13.586Z,100.00
2023-03-17T18:55:17.329Z,100.00
2023-03-17T18:57:19.847Z,100.00
2023-03-17T18:59:22.399Z,100.00
2023-03-17T19:01:26.019Z,100.00
2023-03-17T19:03:32.250Z,100.00
2023-03-17T19:05:39.504Z,100.00
2023-03-17T19:07:42.412Z,100.00
2023-03-17T19:09:45.238Z,100.00
2023-03-17T19:11:47.887Z,100.00
2023-03-17T19:13:52.632Z,100.00
2023-03-17T19:15:56.001Z,100.00
2023-03-17T19:17:58.526Z,100.00
2023-03-17T19:20:01.834Z,100.00
2023-03-17T19:22:06.317Z,100.00
2023-03-17T19:24:11.227Z,100.00
2023-03-17T19:26:14.692Z,100.00
2023-03-17T19:28:18.244Z,100.00
2023-03-17T19:30:21.145Z,100.00
2023-03-17T19:32:24.645Z,100.00
2023-03-17T19:34:27.506Z,100.00
2023-03-17T19:36:38.625Z,100.00
2023-03-17T19:38:41.928Z,100.00
2023-03-17T19:40:44.398Z,100.00
2023-03-17T19:42:46.905Z,100.00
2023-03-17T19:44:49.819Z,100.00
2023-03-17T19:46:52.358Z,100.00
2023-03-17T19:48:56.784Z,100.00
2023-03-17T19:51:00.246Z,100.00
2023-03-17T19:53:02.935Z,100.00
2023-03-17T19:55:08.246Z,100.00
2023-03-17T19:57:12.380Z,100.00
2023-03-17T19:59:15.573Z,100.00
2023-03-17T20:01:18.133Z,100.00
2023-03-17T20:03:20.742Z,100.00
2023-03-17T20:05:23.266Z,100.00
2023-03-17T20:07:26.172Z,100.00
2023-03-17T20:09:28.812Z,100.00
2023-03-17T20:11:37.342Z,100.00
2023-03-17T20:13:41.996Z,100.00
2023-03-17T20:15:45.052Z,100.00
2023-03-17T20:17:48.522Z,100.00
2023-03-17T20:19:51.466Z,100.00
2023-03-17T20:21:54.160Z,100.00
2023-03-17T20:23:56.978Z,100.00
2023-03-17T20:25:59.840Z,100.00
2023-03-17T20:28:02.919Z,100.00
2023-03-17T20:30:08.522Z,100.00
2023-03-17T20:32:12.227Z,100.00
2023-03-17T20:34:15.343Z,100.00
2023-03-17T20:36:17.901Z,100.00
2023-03-17T20:38:21.482Z,100.00
2023-03-17T20:40:25.741Z,100.00
2023-03-17T20:42:28.358Z,100.00
2023-03-17T20:44:30.957Z,100.00
2023-03-17T20:46:33.511Z,100.00
2023-03-17T20:48:37.277Z,100.00
2023-03-17T20:50:41.102Z,100.00
2023-03-17T20:52:43.838Z,100.00
2023-03-17T20:54:46.326Z,100.00
2023-03-17T20:56:52.473Z,100.00
2023-03-17T20:58:56.348Z,100.00
2023-03-17T21:00:58.956Z,100.00
2023-03-17T21:03:02.320Z,100.00
2023-03-17T21:05:05.476Z,100.00
2023-03-17T21:07:08.363Z,100.00
2023-03-17T21:09:10.994Z,100.00
2023-03-17T21:11:19.781Z,100.00
2023-03-17T21:13:22.262Z,100.00
2023-03-17T21:15:24.858Z,100.00
2023-03-17T21:17:27.524Z,100.00
2023-03-17T21:19:30.044Z,100.00
2023-03-17T21:21:32.694Z,100.00
2023-03-17T21:23:35.560Z,100.00
2023-03-17T21:25:39.110Z,100.00
2023-03-17T21:27:41.857Z,100.00
2023-03-17T21:29:44.426Z,100.00
2023-03-17T21:31:47.157Z,100.00
2023-03-17T21:33:50.748Z,100.00
2023-03-17T21:35:53.586Z,100.00
2023-03-17T21:37:57.371Z,100.00
2023-03-17T21:39:59.900Z,100.00
2023-03-17T21:42:02.482Z,100.00
2023-03-17T21:44:06.481Z,100.00
2023-03-17T21:46:09.060Z,100.00
2023-03-17T21:48:11.570Z,100.00
2023-03-17T21:50:16.416Z,100.00
2023-03-17T21:52:20.995Z,100.00
2023-03-17T21:54:24.530Z,100.00
2023-03-17T21:56:27.570Z,100.00
2023-03-17T21:58:30.053Z,100.00
2023-03-17T22:00:42.661Z,100.00
2023-03-17T22:02:47.167Z,100.00
2023-03-17T22:04:49.756Z,100.00
2023-03-17T22:06:52.581Z,100.00
2023-03-17T22:08:55.727Z,100.00
2023-03-17T22:10:58.355Z,100.00
2023-03-17T22:13:00.868Z,100.00
2023-03-17T22:15:04.570Z,100.00
2023-03-17T22:17:07.281Z,100.00
2023-03-17T22:19:10.481Z,100.00
2023-03-17T22:21:13.088Z,100.00
2023-03-17T22:23:15.566Z,100.00
2023-03-17T22:25:21.157Z,100.00
2023-03-17T22:27:25.510Z,100.00
2023-03-17T22:29:27.988Z,100.00
2023-03-17T22:31:30.790Z,100.00
2023-03-17T22:33:33.644Z,100.00
2023-03-17T22:35:38.053Z,100.00
2023-03-17T22:37:41.559Z,100.00
2023-03-17T22:39:44.032Z,100.00
2023-03-17T22:41:46.535Z,100.00
2023-03-17T22:43:49.396Z,100.00
2023-03-17T22:45:51.988Z,100.00
2023-03-17T22:47:55.524Z,100.00
2023-03-17T22:49:57.996Z,100.00
2023-03-17T22:52:00.598Z,100.00
2023-03-17T22:54:03.719Z,100.00
2023-03-17T22:56:07.462Z,100.00
2023-03-17T22:58:10.665Z,100.00
2023-03-17T23:00:16.814Z,100.00
2023-03-17T23:02:19.385Z,100.00
2023-03-17T23:04:22.097Z,100.00
2023-03-17T23:06:25.247Z,100.00
2023-03-17T23:08:29.625Z,100.00
2023-03-17T23:10:33.722Z,100.00
2023-03-17T23:12:36.557Z,100.00
2023-03-17T23:14:39.362Z,100.00
2023-03-17T23:16:41.965Z,100.00
2023-03-17T23:18:46.808Z,100.00
2023-03-17T23:20:50.757Z,100.00
2023-03-17T23:22:53.294Z,100.00
2023-03-17T23:24:57.556Z,100.00
2023-03-17T23:27:00.089Z,100.00
2023-03-17T23:29:05.166Z,100.00
2023-03-17T23:31:08.282Z,100.00
2023-03-17T23:33:11.164Z,100.00
2023-03-17T23:35:14.344Z,100.00
2023-03-17T23:37:17.231Z,100.00
2023-03-17T23:39:19.793Z,100.00
2023-03-17T23:41:22.860Z,100.00
2023-03-17T23:43:26.155Z,100.00
2023-03-17T23:45:28.880Z,100.00
2023-03-17T23:47:31.807Z,100.00
2023-03-17T23:49:34.278Z,100.00
2023-03-17T23:51:36.865Z,100.00
2023-03-17T23:53:39.838Z,100.00
2023-03-17T23:55:42.376Z,100.00
2023-03-17T23:57:45.297Z,100.00
2023-03-17T23:59:47.728Z,100.00
